B320Q ZYTL-ZSPD
Flight info
| Callsign | B320Q |
|---|---|
| Flight time | 1h 29m |
| Altitude | 38100 |
| Route | KAR19D KARPI W5 TAO DCT URBAD W172 LATUX W108 MATNU W115 PINOT |
| Aircraft | A319/M-SDE3FGHIRWY/LB1 |
Departure
| Time | 2026-05-04 11:31 |
|---|---|
| Airport | Dalian Zhoushuizi International Airport (ZYTL) |
Arrival
| Time | 2026-05-04 13:01 |
|---|---|
| Airport | Shanghai Pudong International Airport (ZSPD) |
| Time | Latitude | Longitude | Altitude | Speed | Heading |
|---|---|---|---|---|---|
| 2026-05-04 11:05 | 38.96395 | 121.52667 | 150 ft | 0 kts | 275° |
| 2026-05-04 11:22 | 38.96397 | 121.52647 | 150 ft | 3 kts | 281° |
| 2026-05-04 11:22 | 38.96421 | 121.52621 | 150 ft | 8 kts | 344° |
| 2026-05-04 11:23 | 38.96462 | 121.52683 | 150 ft | 13 kts | 94° |
| 2026-05-04 11:23 | 38.96452 | 121.52805 | 150 ft | 15 kts | 96° |
| 2026-05-04 11:24 | 38.96410 | 121.53653 | 150 ft | 17 kts | 96° |
| 2026-05-04 11:25 | 38.96397 | 121.53812 | 150 ft | 19 kts | 95° |
| 2026-05-04 11:25 | 38.96385 | 121.53989 | 150 ft | 21 kts | 95° |
| 2026-05-04 11:25 | 38.96370 | 121.54180 | 152 ft | 22 kts | 96° |
| 2026-05-04 11:26 | 38.96335 | 121.54611 | 150 ft | 26 kts | 95° |
| 2026-05-04 11:27 | 38.96259 | 121.55441 | 150 ft | 5 kts | 65° |
| 2026-05-04 11:28 | 38.96294 | 121.55464 | 150 ft | 7 kts | 0° |
| 2026-05-04 11:28 | 38.96349 | 121.55466 | 150 ft | 9 kts | 6° |
| 2026-05-04 11:28 | 38.96418 | 121.55477 | 150 ft | 11 kts | 7° |
| 2026-05-04 11:28 | 38.96448 | 121.55415 | 150 ft | 8 kts | 274° |
| 2026-05-04 11:29 | 38.96449 | 121.55404 | 150 ft | 0 kts | 274° |
| 2026-05-04 11:29 | 38.96451 | 121.55356 | 150 ft | 34 kts | 275° |
| 2026-05-04 11:29 | 38.96507 | 121.54635 | 150 ft | 123 kts | 276° |
| 2026-05-04 11:29 | 38.96607 | 121.53297 | 503 ft | 158 kts | 273° |
| 2026-05-04 11:31 | 38.97519 | 121.41012 | 5805 ft | 235 kts | 275° |
| 2026-05-04 11:33 | 39.06549 | 121.40937 | 12977 ft | 305 kts | 81° |
| 2026-05-04 11:33 | 39.06517 | 121.43723 | 13832 ft | 316 kts | 93° |
| 2026-05-04 11:33 | 39.06301 | 121.46560 | 14739 ft | 321 kts | 95° |
| 2026-05-04 11:34 | 39.06039 | 121.49430 | 15666 ft | 325 kts | 95° |
| 2026-05-04 11:34 | 39.05643 | 121.52318 | 16558 ft | 332 kts | 108° |
| 2026-05-04 11:34 | 39.04527 | 121.54869 | 17481 ft | 336 kts | 130° |
| 2026-05-04 11:34 | 39.02693 | 121.56745 | 18382 ft | 341 kts | 154° |
| 2026-05-04 11:35 | 39.00415 | 121.57542 | 19139 ft | 346 kts | 178° |
| 2026-05-04 11:35 | 38.98016 | 121.57267 | 19922 ft | 349 kts | 193° |
| 2026-05-04 11:35 | 38.95695 | 121.56306 | 20639 ft | 356 kts | 205° |
| 2026-05-04 11:35 | 38.93478 | 121.54708 | 20815 ft | 377 kts | 216° |
| 2026-05-04 11:36 | 38.91245 | 121.52755 | 21000 ft | 398 kts | 216° |
| 2026-05-04 11:36 | 38.88921 | 121.50736 | 21514 ft | 408 kts | 215° |
| 2026-05-04 11:36 | 38.86577 | 121.48722 | 22157 ft | 414 kts | 215° |
| 2026-05-04 11:36 | 38.84160 | 121.46669 | 22808 ft | 420 kts | 215° |
| 2026-05-04 11:37 | 38.81705 | 121.44601 | 23441 ft | 425 kts | 215° |
| 2026-05-04 11:37 | 38.79213 | 121.42509 | 23992 ft | 430 kts | 215° |
| 2026-05-04 11:37 | 38.76707 | 121.40402 | 24558 ft | 433 kts | 215° |
| 2026-05-04 11:37 | 38.74178 | 121.38274 | 25120 ft | 436 kts | 215° |
| 2026-05-04 11:38 | 38.71636 | 121.36135 | 25677 ft | 439 kts | 215° |
| 2026-05-04 11:38 | 38.69081 | 121.33981 | 26232 ft | 441 kts | 215° |
| 2026-05-04 11:38 | 38.66541 | 121.31842 | 26776 ft | 444 kts | 215° |
| 2026-05-04 11:38 | 38.63953 | 121.29659 | 27320 ft | 447 kts | 215° |
| 2026-05-04 11:39 | 38.61354 | 121.27460 | 27855 ft | 450 kts | 215° |
| 2026-05-04 11:39 | 38.58732 | 121.25243 | 28385 ft | 453 kts | 215° |
| 2026-05-04 11:40 | 38.46061 | 121.07353 | 31059 ft | 463 kts | 236° |
| 2026-05-04 11:41 | 38.44124 | 121.04059 | 31433 ft | 465 kts | 235° |
| 2026-05-04 11:41 | 38.42181 | 121.00771 | 31967 ft | 463 kts | 235° |
| 2026-05-04 11:41 | 38.40246 | 120.97500 | 32556 ft | 460 kts | 235° |
| 2026-05-04 11:41 | 38.38326 | 120.94252 | 33121 ft | 458 kts | 236° |
| 2026-05-04 11:42 | 38.36439 | 120.91058 | 33678 ft | 456 kts | 236° |
| 2026-05-04 11:42 | 38.34532 | 120.87826 | 34219 ft | 454 kts | 236° |
| 2026-05-04 11:42 | 38.32640 | 120.84621 | 34729 ft | 452 kts | 236° |
| 2026-05-04 11:42 | 38.30758 | 120.81435 | 35252 ft | 449 kts | 236° |
| 2026-05-04 11:43 | 38.28881 | 120.78269 | 35782 ft | 446 kts | 236° |
| 2026-05-04 11:43 | 38.26987 | 120.75156 | 36277 ft | 445 kts | 232° |
| 2026-05-04 11:43 | 38.24787 | 120.72373 | 36742 ft | 447 kts | 223° |
| 2026-05-04 11:43 | 38.22245 | 120.70073 | 37194 ft | 450 kts | 214° |
| 2026-05-04 11:44 | 38.19447 | 120.68259 | 37638 ft | 451 kts | 210° |
| 2026-05-04 11:44 | 38.16662 | 120.66544 | 38010 ft | 451 kts | 210° |
| 2026-05-04 11:44 | 38.13847 | 120.64800 | 38083 ft | 450 kts | 211° |
| 2026-05-04 11:45 | 38.08244 | 120.61311 | 38094 ft | 449 kts | 211° |
| 2026-05-04 11:45 | 38.02538 | 120.58061 | 38097 ft | 454 kts | 202° |
| 2026-05-04 11:46 | 37.96245 | 120.56812 | 38084 ft | 463 kts | 187° |
| 2026-05-04 11:46 | 37.89850 | 120.56357 | 38096 ft | 464 kts | 188° |
| 2026-05-04 11:47 | 37.83412 | 120.55860 | 38102 ft | 464 kts | 188° |
| 2026-05-04 11:47 | 37.76974 | 120.55356 | 38084 ft | 464 kts | 188° |
| 2026-05-04 11:48 | 37.70533 | 120.54873 | 38093 ft | 464 kts | 188° |
| 2026-05-04 11:48 | 37.64135 | 120.54372 | 38101 ft | 463 kts | 189° |
| 2026-05-04 11:49 | 37.57737 | 120.53504 | 38112 ft | 462 kts | 192° |
| 2026-05-04 11:49 | 37.51369 | 120.52427 | 38104 ft | 462 kts | 193° |
| 2026-05-04 11:50 | 37.44986 | 120.51401 | 38108 ft | 463 kts | 192° |
| 2026-05-04 11:50 | 37.38629 | 120.50457 | 38110 ft | 464 kts | 192° |
| 2026-05-04 11:51 | 37.32219 | 120.49528 | 38104 ft | 463 kts | 192° |
| 2026-05-04 11:51 | 37.25814 | 120.48586 | 38114 ft | 463 kts | 192° |
| 2026-05-04 11:52 | 37.19425 | 120.47626 | 38122 ft | 463 kts | 192° |
| 2026-05-04 11:52 | 37.14117 | 120.46826 | 38112 ft | 462 kts | 192° |
| 2026-05-04 11:53 | 37.06698 | 120.45738 | 38139 ft | 461 kts | 192° |
| 2026-05-04 11:53 | 37.00324 | 120.44805 | 38142 ft | 461 kts | 192° |
| 2026-05-04 11:55 | 36.75935 | 120.41214 | 38124 ft | 460 kts | 192° |
| 2026-05-04 11:56 | 36.69620 | 120.40292 | 38141 ft | 460 kts | 192° |
| 2026-05-04 11:56 | 36.63263 | 120.39366 | 38140 ft | 460 kts | 192° |
| 2026-05-04 11:57 | 36.55878 | 120.38288 | 38123 ft | 460 kts | 192° |
| 2026-05-04 11:57 | 36.50542 | 120.37622 | 38135 ft | 462 kts | 189° |
| 2026-05-04 11:58 | 36.44149 | 120.37343 | 38140 ft | 464 kts | 186° |
| 2026-05-04 11:58 | 36.37693 | 120.37276 | 38142 ft | 464 kts | 186° |
| 2026-05-04 11:59 | 36.31233 | 120.37389 | 38134 ft | 469 kts | 178° |
| 2026-05-04 11:59 | 36.24894 | 120.39552 | 38144 ft | 481 kts | 159° |
| 2026-05-04 12:00 | 36.18973 | 120.43341 | 38156 ft | 483 kts | 156° |
| 2026-05-04 12:00 | 36.12931 | 120.46899 | 38164 ft | 477 kts | 166° |
| 2026-05-04 12:01 | 36.06522 | 120.48402 | 38156 ft | 464 kts | 183° |
| 2026-05-04 12:02 | 35.84525 | 120.55359 | 38183 ft | 481 kts | 161° |
| 2026-05-04 12:03 | 35.78400 | 120.58704 | 38188 ft | 481 kts | 161° |
| 2026-05-04 12:03 | 35.72282 | 120.62065 | 38194 ft | 483 kts | 159° |
| 2026-05-04 12:04 | 35.66344 | 120.65876 | 38209 ft | 486 kts | 155° |
| 2026-05-04 12:04 | 35.60487 | 120.70039 | 38179 ft | 486 kts | 155° |
| 2026-05-04 12:05 | 35.54616 | 120.74159 | 38189 ft | 486 kts | 156° |
| 2026-05-04 12:05 | 35.48690 | 120.78123 | 38193 ft | 483 kts | 160° |
| 2026-05-04 12:06 | 35.42550 | 120.81185 | 38201 ft | 479 kts | 164° |
| 2026-05-04 12:06 | 35.36358 | 120.84237 | 38188 ft | 480 kts | 163° |
| 2026-05-04 12:07 | 35.30174 | 120.87319 | 38200 ft | 480 kts | 163° |
| 2026-05-04 12:07 | 35.24022 | 120.90365 | 38204 ft | 480 kts | 164° |
| 2026-05-04 12:08 | 35.17832 | 120.93410 | 38210 ft | 480 kts | 164° |
| 2026-05-04 12:08 | 35.11638 | 120.96466 | 38226 ft | 480 kts | 164° |
| 2026-05-04 12:09 | 35.05456 | 120.99540 | 38206 ft | 480 kts | 163° |
| 2026-05-04 12:09 | 34.99272 | 121.02623 | 38213 ft | 480 kts | 163° |
| 2026-05-04 12:10 | 34.93132 | 121.05671 | 38219 ft | 480 kts | 164° |
| 2026-05-04 12:10 | 34.86944 | 121.08722 | 38226 ft | 480 kts | 164° |
| 2026-05-04 12:11 | 34.80758 | 121.11784 | 38210 ft | 480 kts | 164° |
| 2026-05-04 12:11 | 34.74571 | 121.14831 | 38218 ft | 480 kts | 164° |
| 2026-05-04 12:12 | 34.68426 | 121.17845 | 38226 ft | 479 kts | 164° |
| 2026-05-04 12:12 | 34.62243 | 121.20882 | 38228 ft | 480 kts | 164° |
| 2026-05-04 12:14 | 34.37561 | 121.32974 | 38236 ft | 479 kts | 164° |
| 2026-05-04 12:15 | 34.31388 | 121.35989 | 38213 ft | 478 kts | 165° |
| 2026-05-04 12:15 | 34.25215 | 121.38986 | 38218 ft | 478 kts | 165° |
| 2026-05-04 12:16 | 34.19038 | 121.41986 | 38222 ft | 478 kts | 164° |
| 2026-05-04 12:16 | 34.12903 | 121.44958 | 38230 ft | 478 kts | 165° |
| 2026-05-04 12:17 | 34.06724 | 121.47947 | 38197 ft | 478 kts | 165° |
| 2026-05-04 12:17 | 34.00543 | 121.50941 | 38220 ft | 478 kts | 165° |
| 2026-05-04 12:18 | 33.94372 | 121.53922 | 38224 ft | 478 kts | 165° |
| 2026-05-04 12:18 | 33.88241 | 121.56872 | 38234 ft | 477 kts | 165° |
| 2026-05-04 12:19 | 33.82081 | 121.59836 | 38209 ft | 477 kts | 165° |
| 2026-05-04 12:19 | 33.75919 | 121.62798 | 38223 ft | 477 kts | 165° |
| 2026-05-04 12:20 | 33.69762 | 121.65762 | 38235 ft | 477 kts | 165° |
| 2026-05-04 12:20 | 33.63653 | 121.68746 | 38240 ft | 477 kts | 165° |
| 2026-05-04 12:21 | 33.57507 | 121.71765 | 38245 ft | 477 kts | 165° |
| 2026-05-04 12:21 | 33.51364 | 121.74768 | 38219 ft | 477 kts | 165° |
| 2026-05-04 12:22 | 33.45221 | 121.77768 | 38229 ft | 477 kts | 165° |
| 2026-05-04 12:22 | 33.39109 | 121.80746 | 38229 ft | 477 kts | 166° |
| 2026-05-04 12:23 | 33.32960 | 121.83737 | 38246 ft | 477 kts | 166° |
| 2026-05-04 12:23 | 33.26816 | 121.86721 | 38236 ft | 476 kts | 166° |
| 2026-05-04 12:24 | 33.20685 | 121.89709 | 38245 ft | 476 kts | 166° |
| 2026-05-04 12:24 | 33.14599 | 121.92663 | 38257 ft | 475 kts | 166° |
| 2026-05-04 12:25 | 33.08466 | 121.95622 | 38262 ft | 475 kts | 166° |
| 2026-05-04 12:25 | 33.02336 | 121.98578 | 38230 ft | 475 kts | 167° |
| 2026-05-04 12:26 | 32.96218 | 122.01525 | 38243 ft | 474 kts | 167° |
| 2026-05-04 12:26 | 32.90108 | 122.04471 | 38249 ft | 474 kts | 167° |
| 2026-05-04 12:27 | 32.84038 | 122.07396 | 38248 ft | 474 kts | 167° |
| 2026-05-04 12:27 | 32.77920 | 122.10340 | 38252 ft | 474 kts | 167° |
| 2026-05-04 12:28 | 32.71806 | 122.13272 | 38236 ft | 474 kts | 167° |
| 2026-05-04 12:28 | 32.65688 | 122.16195 | 38251 ft | 474 kts | 168° |
| 2026-05-04 12:29 | 32.59618 | 122.19096 | 38257 ft | 474 kts | 167° |
| 2026-05-04 12:29 | 32.53506 | 122.22024 | 38262 ft | 475 kts | 166° |
| 2026-05-04 12:30 | 32.50564 | 122.23937 | 38266 ft | 489 kts | 155° |
| 2026-05-04 12:30 | 32.47672 | 122.26024 | 38154 ft | 483 kts | 161° |
| 2026-05-04 12:30 | 32.44658 | 122.27678 | 37754 ft | 473 kts | 168° |
| 2026-05-04 12:30 | 32.41588 | 122.28997 | 37372 ft | 467 kts | 172° |
| 2026-05-04 12:31 | 32.38541 | 122.30147 | 36989 ft | 465 kts | 173° |
| 2026-05-04 12:31 | 32.35453 | 122.31306 | 36614 ft | 466 kts | 172° |
| 2026-05-04 12:31 | 32.32378 | 122.32543 | 36246 ft | 468 kts | 170° |
| 2026-05-04 12:31 | 32.29312 | 122.33884 | 35881 ft | 471 kts | 168° |
| 2026-05-04 12:32 | 32.26259 | 122.35307 | 35503 ft | 472 kts | 168° |
| 2026-05-04 12:32 | 32.20180 | 122.38246 | 34767 ft | 472 kts | 168° |
| 2026-05-04 12:32 | 32.17143 | 122.39703 | 34424 ft | 471 kts | 168° |
| 2026-05-04 12:33 | 32.14102 | 122.41141 | 34075 ft | 471 kts | 168° |
| 2026-05-04 12:33 | 32.11100 | 122.42543 | 33679 ft | 470 kts | 169° |
| 2026-05-04 12:33 | 32.08054 | 122.43952 | 33283 ft | 470 kts | 169° |
| 2026-05-04 12:33 | 32.05002 | 122.45354 | 32742 ft | 471 kts | 169° |
| 2026-05-04 12:34 | 32.01950 | 122.46752 | 32114 ft | 471 kts | 169° |
| 2026-05-04 12:34 | 31.98901 | 122.48153 | 31486 ft | 471 kts | 169° |
| 2026-05-04 12:34 | 31.95849 | 122.49561 | 30878 ft | 471 kts | 169° |
| 2026-05-04 12:34 | 31.92794 | 122.50974 | 30282 ft | 472 kts | 169° |
| 2026-05-04 12:35 | 31.89780 | 122.52370 | 29612 ft | 471 kts | 169° |
| 2026-05-04 12:35 | 31.86737 | 122.53784 | 28930 ft | 468 kts | 168° |
| 2026-05-04 12:35 | 31.83723 | 122.55186 | 28264 ft | 464 kts | 168° |
| 2026-05-04 12:35 | 31.80732 | 122.56574 | 27605 ft | 460 kts | 167° |
| 2026-05-04 12:36 | 31.77766 | 122.57941 | 26979 ft | 456 kts | 167° |
| 2026-05-04 12:36 | 31.74826 | 122.59290 | 26358 ft | 452 kts | 166° |
| 2026-05-04 12:36 | 31.71906 | 122.60627 | 25750 ft | 448 kts | 166° |
| 2026-05-04 12:36 | 31.69013 | 122.61953 | 25129 ft | 445 kts | 166° |
| 2026-05-04 12:37 | 31.66176 | 122.63255 | 24551 ft | 443 kts | 166° |
| 2026-05-04 12:37 | 31.63305 | 122.64503 | 23981 ft | 435 kts | 171° |
| 2026-05-04 12:37 | 31.60387 | 122.65015 | 23358 ft | 417 kts | 186° |
| 2026-05-04 12:37 | 31.57566 | 122.64622 | 22687 ft | 401 kts | 200° |
| 2026-05-04 12:38 | 31.55022 | 122.63445 | 22028 ft | 387 kts | 216° |
| 2026-05-04 12:38 | 31.52959 | 122.61516 | 21399 ft | 376 kts | 231° |
| 2026-05-04 12:38 | 31.51488 | 122.59017 | 20785 ft | 371 kts | 244° |
| 2026-05-04 12:38 | 31.50278 | 122.56397 | 20169 ft | 370 kts | 244° |
| 2026-05-04 12:39 | 31.49055 | 122.53746 | 19552 ft | 369 kts | 244° |
| 2026-05-04 12:39 | 31.47837 | 122.51113 | 18963 ft | 367 kts | 243° |
| 2026-05-04 12:39 | 31.46620 | 122.48488 | 18374 ft | 367 kts | 244° |
| 2026-05-04 12:39 | 31.45616 | 122.45761 | 17712 ft | 363 kts | 253° |
| 2026-05-04 12:40 | 31.45087 | 122.42882 | 17083 ft | 360 kts | 264° |
| 2026-05-04 12:40 | 31.45022 | 122.39980 | 16856 ft | 350 kts | 271° |
| 2026-05-04 12:40 | 31.45036 | 122.37206 | 16841 ft | 330 kts | 270° |
| 2026-05-04 12:40 | 31.45034 | 122.34636 | 16847 ft | 311 kts | 270° |
| 2026-05-04 12:41 | 31.45025 | 122.32175 | 16839 ft | 292 kts | 270° |
| 2026-05-04 12:41 | 31.45016 | 122.29860 | 16671 ft | 278 kts | 270° |
| 2026-05-04 12:41 | 31.45009 | 122.27620 | 16275 ft | 273 kts | 270° |
| 2026-05-04 12:41 | 31.45004 | 122.25407 | 15821 ft | 271 kts | 271° |
| 2026-05-04 12:42 | 31.44961 | 122.23208 | 15348 ft | 270 kts | 264° |
| 2026-05-04 12:42 | 31.44343 | 122.21136 | 14902 ft | 274 kts | 240° |
| 2026-05-04 12:42 | 31.43015 | 122.19532 | 14437 ft | 280 kts | 216° |
| 2026-05-04 12:42 | 31.41219 | 122.18718 | 13936 ft | 285 kts | 193° |
| 2026-05-04 12:43 | 31.39257 | 122.18343 | 13289 ft | 286 kts | 192° |
| 2026-05-04 12:43 | 31.37294 | 122.17984 | 12715 ft | 285 kts | 191° |
| 2026-05-04 12:43 | 31.35369 | 122.17506 | 12137 ft | 281 kts | 201° |
| 2026-05-04 12:43 | 31.33600 | 122.16582 | 11572 ft | 277 kts | 211° |
| 2026-05-04 12:44 | 31.31891 | 122.15547 | 11010 ft | 276 kts | 210° |
| 2026-05-04 12:44 | 31.30187 | 122.14519 | 10455 ft | 275 kts | 210° |
| 2026-05-04 12:44 | 31.28493 | 122.13499 | 9880 ft | 274 kts | 210° |
| 2026-05-04 12:44 | 31.26882 | 122.12404 | 9284 ft | 269 kts | 220° |
| 2026-05-04 12:45 | 31.25519 | 122.10954 | 8696 ft | 263 kts | 229° |
| 2026-05-04 12:45 | 31.24237 | 122.09439 | 8103 ft | 261 kts | 228° |
| 2026-05-04 12:45 | 31.22964 | 122.07949 | 7518 ft | 258 kts | 228° |
| 2026-05-04 12:45 | 31.21700 | 122.06474 | 6935 ft | 255 kts | 227° |
| 2026-05-04 12:46 | 31.20471 | 122.04997 | 6340 ft | 251 kts | 233° |
| 2026-05-04 12:46 | 31.19529 | 122.03318 | 5767 ft | 244 kts | 245° |
| 2026-05-04 12:46 | 31.18784 | 122.01572 | 5317 ft | 242 kts | 245° |
| 2026-05-04 12:46 | 31.18033 | 121.99832 | 4954 ft | 238 kts | 244° |
| 2026-05-04 12:47 | 31.17423 | 121.98055 | 4559 ft | 235 kts | 259° |
| 2026-05-04 12:47 | 31.17462 | 121.96167 | 4118 ft | 234 kts | 283° |
| 2026-05-04 12:47 | 31.18190 | 121.94470 | 3698 ft | 237 kts | 308° |
| 2026-05-04 12:47 | 31.19485 | 121.93276 | 3251 ft | 242 kts | 333° |
| 2026-05-04 12:48 | 31.21090 | 121.92650 | 3025 ft | 245 kts | 341° |
| 2026-05-04 12:48 | 31.22722 | 121.92051 | 3019 ft | 247 kts | 340° |
| 2026-05-04 12:48 | 31.24360 | 121.91437 | 3022 ft | 248 kts | 340° |
| 2026-05-04 12:48 | 31.25981 | 121.90822 | 3020 ft | 249 kts | 340° |
| 2026-05-04 12:49 | 31.27626 | 121.90195 | 3022 ft | 248 kts | 340° |
| 2026-05-04 12:49 | 31.29274 | 121.89569 | 3021 ft | 249 kts | 340° |
| 2026-05-04 12:49 | 31.30924 | 121.88942 | 3021 ft | 249 kts | 339° |
| 2026-05-04 12:49 | 31.32571 | 121.88316 | 3021 ft | 249 kts | 340° |
| 2026-05-04 12:50 | 31.34219 | 121.87693 | 3020 ft | 249 kts | 340° |
| 2026-05-04 12:50 | 31.35863 | 121.87075 | 3016 ft | 249 kts | 340° |
| 2026-05-04 12:50 | 31.37508 | 121.86454 | 3015 ft | 248 kts | 340° |
| 2026-05-04 12:50 | 31.39145 | 121.85834 | 3016 ft | 248 kts | 339° |
| 2026-05-04 12:51 | 31.40764 | 121.85219 | 3015 ft | 248 kts | 340° |
| 2026-05-04 12:51 | 31.42376 | 121.84608 | 3009 ft | 235 kts | 339° |
| 2026-05-04 12:51 | 31.43706 | 121.83692 | 3008 ft | 212 kts | 310° |
| 2026-05-04 12:51 | 31.44404 | 121.82287 | 3008 ft | 191 kts | 282° |
| 2026-05-04 12:52 | 31.44472 | 121.80827 | 3012 ft | 173 kts | 257° |
| 2026-05-04 12:52 | 31.44218 | 121.79479 | 3015 ft | 168 kts | 256° |
| 2026-05-04 12:52 | 31.43969 | 121.78146 | 3017 ft | 167 kts | 256° |
| 2026-05-04 12:52 | 31.43716 | 121.76796 | 3066 ft | 176 kts | 256° |
| 2026-05-04 12:53 | 31.43453 | 121.75391 | 3029 ft | 180 kts | 256° |
| 2026-05-04 12:53 | 31.43185 | 121.73955 | 3015 ft | 181 kts | 256° |
| 2026-05-04 12:53 | 31.42913 | 121.72516 | 3009 ft | 181 kts | 255° |
| 2026-05-04 12:53 | 31.42394 | 121.71192 | 3012 ft | 180 kts | 234° |
| 2026-05-04 12:54 | 31.41512 | 121.70164 | 3015 ft | 180 kts | 215° |
| 2026-05-04 12:54 | 31.40379 | 121.69560 | 3014 ft | 180 kts | 196° |
| 2026-05-04 12:54 | 31.39127 | 121.69458 | 3013 ft | 182 kts | 176° |
| 2026-05-04 12:54 | 31.37911 | 121.69833 | 3012 ft | 184 kts | 164° |
| 2026-05-04 12:55 | 31.36694 | 121.70295 | 3014 ft | 184 kts | 165° |
| 2026-05-04 12:55 | 31.35476 | 121.70758 | 3013 ft | 184 kts | 164° |
| 2026-05-04 12:55 | 31.34257 | 121.71221 | 3014 ft | 184 kts | 165° |
| 2026-05-04 12:55 | 31.33037 | 121.71684 | 3013 ft | 184 kts | 164° |
| 2026-05-04 12:56 | 31.31817 | 121.72147 | 3011 ft | 184 kts | 165° |
| 2026-05-04 12:56 | 31.30598 | 121.72609 | 2981 ft | 185 kts | 164° |
| 2026-05-04 12:56 | 31.29376 | 121.73073 | 2807 ft | 184 kts | 164° |
| 2026-05-04 12:56 | 31.28180 | 121.73526 | 2590 ft | 182 kts | 164° |
| 2026-05-04 12:57 | 31.26987 | 121.73979 | 2357 ft | 177 kts | 164° |
| 2026-05-04 12:57 | 31.25862 | 121.74406 | 2131 ft | 163 kts | 164° |
| 2026-05-04 12:57 | 31.24853 | 121.74789 | 1939 ft | 140 kts | 164° |
| 2026-05-04 12:57 | 31.23988 | 121.75116 | 1755 ft | 122 kts | 165° |
| 2026-05-04 12:58 | 31.23205 | 121.75412 | 1596 ft | 115 kts | 166° |
| 2026-05-04 12:58 | 31.22455 | 121.75696 | 1443 ft | 112 kts | 166° |
| 2026-05-04 12:58 | 31.21720 | 121.75974 | 1298 ft | 110 kts | 165° |
| 2026-05-04 12:58 | 31.21004 | 121.76244 | 1156 ft | 109 kts | 165° |
| 2026-05-04 12:59 | 31.20280 | 121.76518 | 1009 ft | 110 kts | 165° |
| 2026-05-04 12:59 | 31.19555 | 121.76793 | 873 ft | 110 kts | 163° |
| 2026-05-04 12:59 | 31.18829 | 121.77069 | 731 ft | 110 kts | 161° |
| 2026-05-04 12:59 | 31.18091 | 121.77349 | 573 ft | 112 kts | 161° |
| 2026-05-04 13:00 | 31.17352 | 121.77635 | 433 ft | 113 kts | 161° |
| 2026-05-04 13:00 | 31.16607 | 121.77919 | 286 ft | 112 kts | 160° |
| 2026-05-04 13:00 | 31.15853 | 121.78198 | 154 ft | 113 kts | 159° |
| 2026-05-04 13:00 | 31.15107 | 121.78479 | 30 ft | 108 kts | 161° |
| 2026-05-04 13:01 | 31.14519 | 121.78703 | 25 ft | 68 kts | 163° |
| 2026-05-04 13:01 | 31.14223 | 121.78811 | 22 ft | 31 kts | 162° |
| 2026-05-04 13:01 | 31.14018 | 121.78884 | 20 ft | 31 kts | 165° |
| 2026-05-04 13:01 | 31.13814 | 121.78892 | 23 ft | 29 kts | 190° |
| 2026-05-04 13:02 | 31.13696 | 121.78869 | 23 ft | 14 kts | 189° |
| 2026-05-04 13:02 | 31.13617 | 121.78853 | 25 ft | 9 kts | 189° |
| 2026-05-04 13:02 | 31.13567 | 121.78850 | 23 ft | 5 kts | 171° |
| 2026-05-04 13:02 | 31.13550 | 121.78856 | 24 ft | 7 kts | 162° |
| 2026-05-04 13:03 | 31.13490 | 121.78879 | 23 ft | 11 kts | 161° |
| 2026-05-04 13:03 | 31.13411 | 121.78909 | 26 ft | 13 kts | 163° |
| 2026-05-04 13:03 | 31.13312 | 121.78945 | 24 ft | 17 kts | 162° |
| 2026-05-04 13:03 | 31.13223 | 121.78980 | 23 ft | 5 kts | 162° |
| 2026-05-04 13:04 | 31.13189 | 121.78962 | 23 ft | 7 kts | 239° |
| 2026-05-04 13:04 | 31.13168 | 121.78903 | 23 ft | 9 kts | 216° |
| 2026-05-04 13:04 | 31.13103 | 121.78918 | 23 ft | 11 kts | 162° |
| 2026-05-04 13:04 | 31.13022 | 121.78948 | 25 ft | 13 kts | 162° |
| 2026-05-04 13:05 | 31.12949 | 121.78973 | 25 ft | 10 kts | 175° |
| 2026-05-04 13:05 | 31.12918 | 121.78911 | 23 ft | 7 kts | 257° |
| 2026-05-04 13:05 | 31.12910 | 121.78882 | 23 ft | 3 kts | 252° |
| 2026-05-04 13:05 | 31.12905 | 121.78866 | 23 ft | 2 kts | 252° |
| 2026-05-04 13:06 | 31.12904 | 121.78861 | 23 ft | 0 kts | 252° |